Time;durP1;ratioP1;P1;durP2;ratioP2;P2;SDS_P1;SDS_P2;PMS_P1;PMS_P2;Temp;Humidity;BMP_temperature;BMP_pressure;BME280_temperature;BME280_humidity;BME280_pressure;Samples;Min_cycle;Max_cycle;Signal;HPM_P1;HPM_P2
2022/08/25 00:02:05;;;;;;;;;;;;;;;26.02;37.52;100588.28;4980716;28;8621;-76
2022/08/25 00:04:34;;;;;;;;;;;;;;;25.99;37.69;100590.97;4964476;28;6946;-76
2022/08/25 00:07:01;;;;;;;;;;;;;;;25.96;37.66;100588.34;4976118;28;6788;-76
2022/08/25 00:09:27;;;;;;;;;;;;;;;25.94;37.42;100588.38;4980759;28;6792;-76
2022/08/25 00:11:54;;;;;;;;;;;;;;;25.92;37.61;100596.28;4966493;28;7241;-76
2022/08/25 00:14:28;;;;;;;;;;;;;;;25.88;37.60;100594.59;4994754;28;6812;-76
2022/08/25 00:16:54;;;;;;;;;;;;;;;25.85;37.58;100588.50;4963246;28;6792;-76
2022/08/25 00:19:26;;;;;;;;;;;;;;;25.81;37.46;100587.66;4964637;28;6772;-76
2022/08/25 00:21:52;;;;;;;;;;;;;;;25.81;37.12;100590.31;4966120;28;9395;-76
2022/08/25 00:24:20;;;;;;;;;;;;;;;25.79;37.34;100589.47;4991362;28;7026;-76
2022/08/25 00:26:50;;;;;;;;;;;;;;;25.77;37.41;100585.97;4966087;28;6966;-76
2022/08/25 00:29:16;;;;;;;;;;;;;;;25.74;37.14;100586.00;4993099;28;7464;-76
2022/08/25 00:31:43;;;;;;;;;;;;;;;25.74;36.87;100588.63;4965379;28;6984;-76
2022/08/25 00:34:18;;;;;;;;;;;;;;;25.72;36.86;100588.63;4965656;28;7046;-76
2022/08/25 00:36:45;;;;;;;;;;;;;;;25.72;36.87;100590.41;4969932;28;7322;-76
2022/08/25 00:39:12;;;;;;;;;;;;;;;25.72;36.73;100591.25;4966254;28;6861;-76
2022/08/25 00:41:41;;;;;;;;;;;;;;;25.71;36.63;100593.94;4976871;28;6998;-76
2022/08/25 00:44:12;;;;;;;;;;;;;;;25.70;37.07;100595.66;4993626;28;7302;-76
2022/08/25 00:46:44;;;;;;;;;;;;;;;25.66;37.16;100593.97;4987871;28;7184;-76
2022/08/25 00:49:28;;;;;;;;;;;;;;;25.62;37.11;100597.50;4979735;28;6880;-76
2022/08/25 00:52:02;;;;;;;;;;;;;;;25.57;36.97;100597.56;4974193;28;7354;-76
2022/08/25 00:54:38;;;;;;;;;;;;;;;25.54;37.36;100599.34;4959080;28;6998;-76
2022/08/25 00:57:06;;;;;;;;;;;;;;;25.49;36.97;100592.38;4994616;28;6800;-76
2022/08/25 00:59:33;;;;;;;;;;;;;;;25.45;36.84;100595.94;4991022;28;7178;-76
2022/08/25 01:02:01;;;;;;;;;;;;;;;25.42;37.02;100601.19;4990750;28;6986;-76
2022/08/25 01:04:27;;;;;;;;;;;;;;;25.38;37.24;100600.34;4964400;28;6793;-76
2022/08/25 01:06:54;;;;;;;;;;;;;;;25.36;36.98;100596.88;4960303;28;7323;-76
2022/08/25 01:09:20;;;;;;;;;;;;;;;25.33;37.25;100602.16;4958056;28;6989;-76
2022/08/25 01:11:46;;;;;;;;;;;;;;;25.28;37.21;100597.84;4985990;28;7235;-76
2022/08/25 01:14:17;;;;;;;;;;;;;;;25.23;37.43;100600.53;4958895;28;7011;-76
2022/08/25 01:16:45;;;;;;;;;;;;;;;25.19;37.55;100593.56;4995228;28;6993;-76
2022/08/25 01:19:14;;;;;;;;;;;;;;;25.14;37.88;100596.22;4990608;28;6808;-76
2022/08/25 01:21:50;;;;;;;;;;;;;;;25.09;37.40;100593.63;4960289;28;7173;-76
2022/08/25 01:24:33;;;;;;;;;;;;;;;25.03;38.00;100598.97;4961392;28;6954;-76
2022/08/25 01:26:59;;;;;;;;;;;;;;;25.00;37.97;100596.34;4973500;28;6819;-76
2022/08/25 01:29:26;;;;;;;;;;;;;;;24.96;37.84;100606.00;4957233;28;6804;-76
2022/08/25 01:32:00;;;;;;;;;;;;;;;24.92;38.06;100600.81;4975859;28;6896;-76
2022/08/25 01:34:30;;;;;;;;;;;;;;;24.87;38.03;100608.72;4955968;28;6824;-76
2022/08/25 01:36:58;;;;;;;;;;;;;;;24.82;38.18;100606.13;4946600;28;6971;-76
2022/08/25 01:39:27;;;;;;;;;;;;;;;24.77;38.08;100604.34;4977142;28;6803;-76
2022/08/25 01:42:05;;;;;;;;;;;;;;;24.72;38.14;100599.16;4956955;28;7908;-76
2022/08/25 01:44:34;;;;;;;;;;;;;;;24.66;39.18;100604.47;4957447;28;6799;-76
2022/08/25 01:47:02;;;;;;;;;;;;;;;24.60;39.12;100609.72;4972880;28;7165;-76
2022/08/25 01:49:27;;;;;;;;;;;;;;;24.54;38.78;100618.50;4957986;28;6812;-76
2022/08/25 01:52:31;;;;;;;;;;;;;;;24.44;39.70;100615.09;4956833;28;6952;-76
2022/08/25 01:54:56;;;;;;;;;;;;;;;24.36;39.67;100617.75;4954715;28;7201;-76
2022/08/25 01:57:23;;;;;;;;;;;;;;;24.31;39.55;100619.53;4975084;28;6840;-76
2022/08/25 01:59:48;;;;;;;;;;;;;;;24.24;39.28;100618.69;4990685;28;7241;-76
2022/08/25 02:02:14;;;;;;;;;;;;;;;24.17;39.84;100630.06;4991860;28;7194;-76
2022/08/25 02:04:40;;;;;;;;;;;;;;;24.13;40.06;100626.59;4962589;28;6937;-75
2022/08/25 02:07:08;;;;;;;;;;;;;;;24.07;40.24;100621.38;4959298;28;7338;-75
2022/08/25 02:09:36;;;;;;;;;;;;;;;24.04;40.15;100615.25;4964072;28;6800;-75
2022/08/25 02:12:02;;;;;;;;;;;;;;;23.99;40.38;100623.13;4974012;28;7000;-76
2022/08/25 02:14:28;;;;;;;;;;;;;;;23.95;40.54;100614.44;4988478;28;8690;-76
2022/08/25 02:16:55;;;;;;;;;;;;;;;23.93;40.68;100613.56;4948831;28;6985;-76
2022/08/25 02:19:24;;;;;;;;;;;;;;;23.91;40.36;100604.84;4963457;28;6829;-76
2022/08/25 02:21:50;;;;;;;;;;;;;;;23.91;40.55;100612.69;4965156;28;7614;-77
2022/08/25 02:24:16;;;;;;;;;;;;;;;23.92;40.42;100605.72;4963034;28;7323;-77
2022/08/25 02:26:42;;;;;;;;;;;;;;;23.92;40.27;100600.50;4958174;28;6970;-77
2022/08/25 02:29:08;;;;;;;;;;;;;;;23.93;40.59;100600.47;4960518;28;7169;-78
2022/08/25 02:31:35;;;;;;;;;;;;;;;23.93;39.97;100602.22;4957725;28;7086;-77
2022/08/25 02:34:02;;;;;;;;;;;;;;;23.94;40.34;100598.72;4960246;28;6971;-77
2022/08/25 02:36:29;;;;;;;;;;;;;;;23.94;40.45;100603.97;4954564;28;7058;-77
2022/08/25 02:38:55;;;;;;;;;;;;;;;23.96;39.91;100595.25;4958074;28;6784;-77
2022/08/25 02:41:23;;;;;;;;;;;;;;;23.99;40.20;100599.56;4954744;28;6941;-77
2022/08/25 02:43:50;;;;;;;;;;;;;;;24.02;40.02;100601.31;4957090;28;7186;-77
2022/08/25 02:46:19;;;;;;;;;;;;;;;24.04;40.00;100589.06;4973631;28;7399;-78
2022/08/25 02:48:47;;;;;;;;;;;;;;;24.05;39.97;100599.56;4970473;28;7505;-77
2022/08/25 02:51:14;;;;;;;;;;;;;;;24.05;39.88;100594.34;4992851;28;7322;-77
2022/08/25 02:53:44;;;;;;;;;;;;;;;24.06;40.20;100592.63;4977172;28;7015;-77
2022/08/25 02:56:13;;;;;;;;;;;;;;;24.05;39.88;100590.88;4987501;28;7209;-77
2022/08/25 02:58:40;;;;;;;;;;;;;;;24.05;40.02;100585.63;4972810;28;7805;-76
2022/08/25 03:01:08;;;;;;;;;;;;;;;24.01;40.27;100595.22;4957153;28;7253;-76
2022/08/25 03:03:34;;;;;;;;;;;;;;;23.97;40.24;100589.13;4957287;28;6796;-76
2022/08/25 03:06:00;;;;;;;;;;;;;;;23.95;40.26;100585.66;4976035;28;7873;-76
2022/08/25 03:08:26;;;;;;;;;;;;;;;23.91;40.75;100576.06;4974716;28;7198;-76
2022/08/25 03:10:51;;;;;;;;;;;;;;;23.88;40.51;100577.81;4959339;28;6764;-76
2022/08/25 03:13:18;;;;;;;;;;;;;;;23.83;41.05;100572.59;4959264;28;6844;-76
2022/08/25 03:15:44;;;;;;;;;;;;;;;23.77;40.71;100573.50;4958021;28;7216;-76
2022/08/25 03:18:10;;;;;;;;;;;;;;;23.72;41.13;100575.28;4975156;28;7408;-76
2022/08/25 03:20:38;;;;;;;;;;;;;;;23.67;40.81;100567.44;4962390;28;7339;-76
2022/08/25 03:23:05;;;;;;;;;;;;;;;23.64;41.63;100574.44;4988580;28;7000;-76
2022/08/25 03:28:17;;;;;;;;;;;;;;;23.53;41.65;100572.72;4977424;28;6808;-76
2022/08/25 03:30:45;;;;;;;;;;;;;;;23.49;41.84;100570.97;4973362;28;7233;-76
2022/08/25 03:33:11;;;;;;;;;;;;;;;23.45;41.44;100566.63;4960931;28;6804;-76
2022/08/25 03:35:37;;;;;;;;;;;;;;;23.44;42.00;100557.91;4992193;28;7309;-76
2022/08/25 03:38:03;;;;;;;;;;;;;;;23.41;41.53;100562.28;4968976;28;8389;-76
2022/08/25 03:40:29;;;;;;;;;;;;;;;23.38;41.84;100557.06;4966114;28;6893;-76
2022/08/25 03:42:55;;;;;;;;;;;;;;;23.35;41.63;100552.69;4953542;28;7129;-76
2022/08/25 03:45:23;;;;;;;;;;;;;;;23.35;41.73;100544.00;4964083;28;7306;-77
2022/08/25 03:47:51;;;;;;;;;;;;;;;23.34;41.93;100550.13;4953407;28;7196;-76
2022/08/25 03:50:20;;;;;;;;;;;;;;;23.34;41.75;100544.88;4953900;28;6804;-76
2022/08/25 03:52:53;;;;;;;;;;;;;;;23.34;41.33;100545.72;4958951;28;6848;-76
2022/08/25 03:55:21;;;;;;;;;;;;;;;23.36;41.11;100546.59;4959293;28;6800;-75
2022/08/25 03:57:47;;;;;;;;;;;;;;;23.37;41.49;100550.97;4959334;28;6800;-76
2022/08/25 04:00:14;;;;;;;;;;;;;;;23.39;41.36;100554.44;4989699;28;7396;-76
2022/08/25 04:02:40;;;;;;;;;;;;;;;23.41;41.52;100557.94;4964743;28;11379;-76
2022/08/25 04:05:08;;;;;;;;;;;;;;;23.41;41.49;100552.69;4986808;28;7178;-77
2022/08/25 04:07:34;;;;;;;;;;;;;;;23.42;41.10;100546.59;4987094;28;6841;-76
2022/08/25 04:09:59;;;;;;;;;;;;;;;23.43;41.59;100550.94;4962023;28;6941;-76
2022/08/25 04:12:25;;;;;;;;;;;;;;;23.43;41.38;100539.63;4966306;28;8383;-76
2022/08/25 04:14:51;;;;;;;;;;;;;;;23.43;41.44;100544.84;4957579;28;7321;-76
2022/08/25 04:17:17;;;;;;;;;;;;;;;23.41;41.24;100542.22;4960200;28;8006;-76
2022/08/25 04:19:43;;;;;;;;;;;;;;;23.42;41.37;100545.72;4958520;28;7797;-76
2022/08/25 04:22:09;;;;;;;;;;;;;;;23.41;41.24;100547.47;4990806;28;7921;-76
2022/08/25 04:24:34;;;;;;;;;;;;;;;23.40;41.45;100550.97;4959080;28;6861;-76
2022/08/25 04:27:00;;;;;;;;;;;;;;;23.39;41.50;100549.22;4994222;28;6927;-76
2022/08/25 04:29:26;;;;;;;;;;;;;;;23.36;41.73;100543.97;4958968;28;9678;-77
2022/08/25 04:31:54;;;;;;;;;;;;;;;23.35;41.24;100544.84;4958904;28;7209;-76
2022/08/25 04:34:22;;;;;;;;;;;;;;;23.34;41.44;100555.34;4965212;28;7161;-76
2022/08/25 04:36:51;;;;;;;;;;;;;;;23.31;41.88;100550.97;4962722;28;6977;-76
2022/08/25 04:39:19;;;;;;;;;;;;;;;23.30;41.60;100544.00;4957413;28;7372;-76
2022/08/25 04:41:48;;;;;;;;;;;;;;;23.30;41.55;100541.41;4961868;28;7171;-76
2022/08/25 04:44:15;;;;;;;;;;;;;;;23.29;41.87;100540.50;4965242;28;7027;-76
2022/08/25 04:46:41;;;;;;;;;;;;;;;23.28;41.89;100536.16;4997617;28;6907;-76
2022/08/25 04:49:07;;;;;;;;;;;;;;;23.29;41.73;100537.03;4976460;28;7736;-76
2022/08/25 04:51:39;;;;;;;;;;;;;;;23.30;41.87;100538.78;4963218;28;6788;-76
2022/08/25 04:54:11;;;;;;;;;;;;;;;23.29;41.48;100531.81;4965180;28;6941;-76
2022/08/25 04:56:40;;;;;;;;;;;;;;;23.29;41.38;100527.44;4964412;28;6792;-76
2022/08/25 04:59:11;;;;;;;;;;;;;;;23.29;42.12;100535.28;4997810;28;6813;-76
2022/08/25 05:01:38;;;;;;;;;;;;;;;23.28;41.35;100527.47;4961479;28;6974;-76
2022/08/25 05:04:07;;;;;;;;;;;;;;;23.27;42.10;100523.06;4965969;28;6788;-76
2022/08/25 05:06:33;;;;;;;;;;;;;;;23.26;41.74;100524.81;4962918;28;7188;-76
2022/08/25 05:09:00;;;;;;;;;;;;;;;23.27;42.03;100523.94;4943873;28;7169;-76
2022/08/25 05:11:26;;;;;;;;;;;;;;;23.29;41.62;100521.34;4961089;28;7008;-76
2022/08/25 05:13:55;;;;;;;;;;;;;;;23.27;41.91;100516.09;4991125;28;6780;-76
2022/08/25 05:16:24;;;;;;;;;;;;;;;23.29;41.47;100511.75;4961933;28;6788;-76
2022/08/25 05:18:51;;;;;;;;;;;;;;;23.32;41.96;100521.34;4990817;28;6972;-77
2022/08/25 05:21:23;;;;;;;;;;;;;;;23.35;42.15;100518.72;4961648;28;6801;-76
2022/08/25 05:23:53;;;;;;;;;;;;;;;23.37;41.99;100519.59;4963686;28;7220;-76
2022/08/25 05:26:21;;;;;;;;;;;;;;;23.39;42.28;100520.47;4978300;28;8174;-76
2022/08/25 05:28:52;;;;;;;;;;;;;;;23.40;42.29;100523.91;4964058;28;6972;-76
2022/08/25 05:31:20;;;;;;;;;;;;;;;23.41;42.30;100531.78;4963126;28;6943;-76
2022/08/25 05:33:46;;;;;;;;;;;;;;;23.43;42.15;100537.88;4993278;28;8684;-76
2022/08/25 05:36:13;;;;;;;;;;;;;;;23.44;42.86;100531.75;4965972;28;6759;-76
2022/08/25 05:38:40;;;;;;;;;;;;;;;23.50;42.79;100530.00;4966496;28;7857;-76
2022/08/25 05:41:11;;;;;;;;;;;;;;;23.55;42.37;100528.22;4993272;28;6780;-76
2022/08/25 05:43:41;;;;;;;;;;;;;;;23.60;42.67;100525.59;4993044;28;7027;-76
2022/08/25 05:46:08;;;;;;;;;;;;;;;23.66;42.65;100523.84;4983063;28;7046;-76
2022/08/25 05:48:35;;;;;;;;;;;;;;;23.72;42.30;100521.19;4961745;28;7237;-76
2022/08/25 05:51:03;;;;;;;;;;;;;;;23.78;42.37;100530.75;4993906;28;7065;-76
2022/08/25 05:53:30;;;;;;;;;;;;;;;23.86;42.85;100520.25;4961391;28;6791;-76
2022/08/25 05:55:58;;;;;;;;;;;;;;;23.93;42.32;100526.31;4960501;28;7164;-78
2022/08/25 05:58:27;;;;;;;;;;;;;;;23.99;42.33;100524.53;4962401;28;6924;-77
2022/08/25 06:00:54;;;;;;;;;;;;;;;24.06;42.67;100519.31;4961511;28;6820;-77
2022/08/25 06:03:20;;;;;;;;;;;;;;;24.12;42.10;100520.13;4978786;28;7038;-77
2022/08/25 06:05:46;;;;;;;;;;;;;;;24.21;42.12;100523.59;4965591;28;6784;-77
2022/08/25 06:08:12;;;;;;;;;;;;;;;24.27;42.34;100523.53;4966599;28;6982;-77
2022/08/25 06:10:38;;;;;;;;;;;;;;;24.36;42.95;100515.59;4975330;28;7082;-77
2022/08/25 06:13:04;;;;;;;;;;;;;;;24.45;42.41;100517.28;4963737;28;7150;-77
2022/08/25 06:15:30;;;;;;;;;;;;;;;24.54;42.24;100522.47;4958641;28;7245;-77
2022/08/25 06:17:57;;;;;;;;;;;;;;;24.64;42.61;100525.00;4960141;28;7093;-77
2022/08/25 06:20:28;;;;;;;;;;;;;;;24.72;42.28;100522.31;4976001;28;7710;-77
2022/08/25 06:22:54;;;;;;;;;;;;;;;24.81;41.86;100519.63;4958169;28;7497;-77
2022/08/25 06:25:24;;;;;;;;;;;;;;;24.90;41.94;100523.91;4977111;28;7290;-77
2022/08/25 06:27:49;;;;;;;;;;;;;;;24.98;42.41;100519.47;4960975;28;6971;-76
2022/08/25 06:30:20;;;;;;;;;;;;;;;25.07;42.01;100522.00;4960300;28;10124;-76
2022/08/25 06:32:48;;;;;;;;;;;;;;;25.19;41.58;100522.75;4962332;28;7237;-77
2022/08/25 06:35:17;;;;;;;;;;;;;;;25.28;41.25;100527.03;4975372;28;6796;-77
2022/08/25 06:37:44;;;;;;;;;;;;;;;25.38;41.23;100532.16;4992245;28;7038;-76
2022/08/25 06:40:11;;;;;;;;;;;;;;;25.47;41.02;100531.19;4957750;28;6788;-77
2022/08/25 06:42:37;;;;;;;;;;;;;;;25.55;40.99;100528.50;4961207;28;6826;-77
2022/08/25 06:45:04;;;;;;;;;;;;;;;25.63;40.95;100531.91;4977231;28;6930;-77
2022/08/25 06:47:30;;;;;;;;;;;;;;;25.72;40.81;100527.41;4975172;28;7796;-76
2022/08/25 06:49:57;;;;;;;;;;;;;;;25.82;40.43;100531.66;4993566;28;7094;-76
2022/08/25 06:52:23;;;;;;;;;;;;;;;25.91;40.48;100536.78;4957953;28;7520;-77
2022/08/25 06:54:49;;;;;;;;;;;;;;;26.02;40.27;100531.38;4975662;28;7177;-77
2022/08/25 06:57:15;;;;;;;;;;;;;;;26.10;40.01;100520.78;4955093;28;6784;-76
2022/08/25 06:59:41;;;;;;;;;;;;;;;26.20;39.60;100522.41;4971531;28;6788;-75
2022/08/25 07:02:07;;;;;;;;;;;;;;;26.29;39.71;100523.16;4955879;28;6812;-75
2022/08/25 07:04:35;;;;;;;;;;;;;;;26.37;39.67;100518.66;4977427;28;6963;-76
2022/08/25 07:07:02;;;;;;;;;;;;;;;26.46;39.37;100522.88;4958640;28;7185;-75
2022/08/25 07:09:28;;;;;;;;;;;;;;;26.57;39.44;100522.72;4974853;28;7236;-75
2022/08/25 07:11:54;;;;;;;;;;;;;;;26.66;39.06;100524.31;4959401;28;6931;-75
2022/08/25 07:14:21;;;;;;;;;;;;;;;26.74;39.00;100519.78;4964650;28;7243;-75
2022/08/25 07:16:47;;;;;;;;;;;;;;;26.83;38.92;100516.13;4960512;28;7293;-75
2022/08/25 07:19:13;;;;;;;;;;;;;;;26.92;38.92;100520.41;4979046;28;8511;-75
2022/08/25 07:21:44;;;;;;;;;;;;;;;27.00;38.54;100514.09;4958833;28;7228;-75
2022/08/25 07:24:12;;;;;;;;;;;;;;;27.10;38.11;100513.91;4974476;28;6976;-75
2022/08/25 07:26:42;;;;;;;;;;;;;;;27.20;37.77;100517.25;4991695;28;7144;-76
2022/08/25 07:29:16;;;;;;;;;;;;;;;27.28;37.79;100510.94;4961251;28;7396;-75
2022/08/25 07:31:41;;;;;;;;;;;;;;;27.39;38.06;100512.47;4991272;28;8136;-76
2022/08/25 07:36:53;;;;;;;;;;;;;;;27.59;37.83;100510.31;4972675;28;7177;-76
2022/08/25 07:39:19;;;;;;;;;;;;;;;27.71;37.41;100509.19;4959982;28;6804;-76
2022/08/25 07:41:45;;;;;;;;;;;;;;;27.82;37.38;100511.59;4959292;28;8037;-76
2022/08/25 07:44:12;;;;;;;;;;;;;;;27.95;37.39;100504.25;4963190;28;6772;-76
2022/08/25 07:46:38;;;;;;;;;;;;;;;28.02;37.39;100494.47;4992947;28;6982;-77
2022/08/25 07:49:05;;;;;;;;;;;;;;;28.10;37.15;100496.91;4945683;28;6996;-77
2022/08/25 07:51:30;;;;;;;;;;;;;;;28.20;37.17;100498.47;4958944;28;6789;-76
2022/08/25 07:53:56;;;;;;;;;;;;;;;28.28;37.07;100491.25;4962891;28;6768;-76
2022/08/25 07:56:22;;;;;;;;;;;;;;;28.38;37.13;100497.13;4955928;28;7910;-76
2022/08/25 07:58:48;;;;;;;;;;;;;;;28.48;36.58;100499.53;4976774;28;6986;-76
2022/08/25 08:01:20;;;;;;;;;;;;;;;28.57;36.90;100501.94;4960589;28;7014;-77
2022/08/25 08:03:46;;;;;;;;;;;;;;;28.65;36.02;100505.25;4967821;28;7059;-77
2022/08/25 08:06:16;;;;;;;;;;;;;;;28.75;36.04;100499.75;4933574;28;7892;-77
2022/08/25 08:08:45;;;;;;;;;;;;;;;28.85;36.04;100503.91;4976932;28;7080;-76
2022/08/25 08:11:26;;;;;;;;;;;;;;;28.96;35.58;100504.47;4945805;28;7009;-77
2022/08/25 08:13:55;;;;;;;;;;;;;;;29.05;35.41;100498.09;4978726;28;6804;-76
2022/08/25 08:16:24;;;;;;;;;;;;;;;29.15;34.87;100493.41;4981368;28;6792;-76
2022/08/25 08:18:49;;;;;;;;;;;;;;;29.24;34.88;100485.22;4964001;28;7197;-77
2022/08/25 08:21:19;;;;;;;;;;;;;;;29.36;35.17;100477.88;4965119;28;7130;-77
2022/08/25 08:23:47;;;;;;;;;;;;;;;29.48;34.73;100480.19;4966991;28;7350;-77
2022/08/25 08:26:13;;;;;;;;;;;;;;;29.59;34.58;100476.34;4961071;28;6788;-77
2022/08/25 08:28:38;;;;;;;;;;;;;;;29.69;35.07;100475.16;4965196;28;7388;-76
2022/08/25 08:31:04;;;;;;;;;;;;;;;29.78;34.20;100469.59;4965605;28;6840;-77
2022/08/25 08:33:30;;;;;;;;;;;;;;;29.89;34.71;100469.25;4961633;28;7236;-76
2022/08/25 08:36:10;;;;;;;;;;;;;;;30.00;34.27;100470.69;4979364;28;6800;-77
2022/08/25 08:38:39;;;;;;;;;;;;;;;30.12;33.51;100477.38;4962587;28;7008;-77
2022/08/25 08:42:16;;;;;;;;;;;;;;;30.25;34.07;100470.78;4966316;28;6795;-77
2022/08/25 08:44:45;;;;;;;;;;;;;;;30.38;33.85;100476.53;4964858;28;6820;-77
2022/08/25 08:47:27;;;;;;;;;;;;;;;30.51;33.23;100476.94;4965661;28;7168;-77
2022/08/25 08:50:37;;;;;;;;;;;;;;;30.66;33.48;100475.59;4962208;28;6804;-76
2022/08/25 08:53:30;;;;;;;;;;;;;;;30.80;32.73;100480.38;4975156;28;6808;-76
2022/08/25 08:55:59;;;;;;;;;;;;;;;30.90;32.12;100473.88;4960098;28;8345;-76
2022/08/25 08:58:52;;;;;;;;;;;;;;;31.02;32.07;100461.97;4970735;28;7192;-76
2022/08/25 09:01:33;;;;;;;;;;;;;;;31.13;31.40;100458.06;4996987;28;7011;-76
2022/08/25 09:04:21;;;;;;;;;;;;;;;31.21;31.49;100449.84;4980051;28;6876;-75
2022/08/25 09:06:49;;;;;;;;;;;;;;;31.35;31.62;100460.78;4958665;28;6800;-76
2022/08/25 09:09:28;;;;;;;;;;;;;;;31.48;31.17;100460.31;4952777;28;7369;-75
2022/08/25 09:11:57;;;;;;;;;;;;;;;31.61;30.35;100460.69;4964202;28;6855;-76
2022/08/25 09:14:56;;;;;;;;;;;;;;;31.74;30.32;100459.31;4964406;28;7168;-76
2022/08/25 09:18:08;;;;;;;;;;;;;;;31.92;29.89;100464.78;4965563;28;6824;-76
2022/08/25 09:21:03;;;;;;;;;;;;;;;32.13;29.75;100460.41;4995081;28;7225;-76
2022/08/25 09:24:10;;;;;;;;;;;;;;;32.35;29.95;100451.53;4991809;28;7452;-76
2022/08/25 09:26:56;;;;;;;;;;;;;;;32.71;29.12;100458.03;4962838;28;7094;-77
2022/08/25 09:29:26;;;;;;;;;;;;;;;33.09;29.03;100458.97;4992932;28;7188;-76
2022/08/25 09:31:59;;;;;;;;;;;;;;;33.62;28.19;100453.91;4962462;28;6816;-76
2022/08/25 09:34:32;;;;;;;;;;;;;;;34.30;27.29;100454.19;4989222;28;7363;-76
2022/08/25 09:36:59;;;;;;;;;;;;;;;35.11;26.07;100453.53;4964411;28;6888;-76
2022/08/25 09:39:24;;;;;;;;;;;;;;;36.05;26.28;100451.00;4962454;28;7171;-76
2022/08/25 09:41:56;;;;;;;;;;;;;;;37.04;25.54;100444.22;4994741;28;6948;-76
2022/08/25 09:44:42;;;;;;;;;;;;;;;37.98;24.18;100442.66;4973993;28;7262;-76
2022/08/25 09:47:16;;;;;;;;;;;;;;;38.84;23.68;100437.72;4960666;28;7325;-76
2022/08/25 09:50:03;;;;;;;;;;;;;;;39.67;23.01;100435.34;4961577;28;6873;-76
2022/08/25 09:52:36;;;;;;;;;;;;;;;40.43;22.18;100420.72;4993141;28;7518;-76
2022/08/25 09:55:29;;;;;;;;;;;;;;;41.32;21.00;100422.66;4976177;28;6955;-76
2022/08/25 09:57:57;;;;;;;;;;;;;;;41.97;20.26;100426.31;4992951;28;7233;-76
2022/08/25 10:00:33;;;;;;;;;;;;;;;42.59;19.84;100421.03;4962002;28;6796;-77
2022/08/25 10:03:10;;;;;;;;;;;;;;;43.18;19.03;100423.97;4959308;28;6788;-76
2022/08/25 10:05:54;;;;;;;;;;;;;;;43.63;18.44;100424.44;4991026;28;6945;-76
2022/08/25 10:08:33;;;;;;;;;;;;;;;44.03;17.99;100415.31;4957970;28;7215;-77
2022/08/25 10:11:04;;;;;;;;;;;;;;;44.47;18.03;100411.25;4962434;28;6965;-76
2022/08/25 10:13:50;;;;;;;;;;;;;;;44.86;17.35;100415.59;4961007;28;7905;-76
2022/08/25 10:16:31;;;;;;;;;;;;;;;45.24;16.86;100408.28;4960614;28;7771;-77
2022/08/25 10:19:27;;;;;;;;;;;;;;;45.54;16.48;100408.06;4961163;28;7050;-77
2022/08/25 10:22:31;;;;;;;;;;;;;;;45.69;15.93;100401.09;4973857;28;7361;-76
2022/08/25 10:25:03;;;;;;;;;;;;;;;45.95;16.09;100389.47;4961447;28;6836;-76
2022/08/25 10:28:35;;;;;;;;;;;;;;;46.38;15.73;100388.72;4980129;28;7852;-76
2022/08/25 10:31:34;;;;;;;;;;;;;;;46.69;15.19;100389.00;4983484;28;7050;-76
2022/08/25 10:34:30;;;;;;;;;;;;;;;46.93;14.94;100387.41;4959718;28;7024;-76
2022/08/25 10:37:27;;;;;;;;;;;;;;;47.14;14.72;100388.81;4964333;28;7248;-76
2022/08/25 10:40:21;;;;;;;;;;;;;;;47.35;14.47;100385.66;4961282;28;7033;-78
2022/08/25 10:43:15;;;;;;;;;;;;;;;47.27;14.25;100378.31;4963558;28;7234;-78
2022/08/25 10:45:59;;;;;;;;;;;;;;;47.16;13.82;100369.69;4994422;28;6994;-78
2022/08/25 10:48:56;;;;;;;;;;;;;;;47.01;13.76;100362.19;4946805;28;7191;-77
2022/08/25 10:51:32;;;;;;;;;;;;;;;46.94;13.79;100361.13;4963557;28;7259;-76
2022/08/25 10:54:50;;;;;;;;;;;;;;;46.90;13.70;100349.78;4960641;28;7029;-76
2022/08/25 10:57:38;;;;;;;;;;;;;;;46.93;13.82;100354.00;4974402;28;7431;-78
2022/08/25 11:00:12;;;;;;;;;;;;;;;46.76;13.97;100356.72;4961539;28;6872;-77
2022/08/25 11:03:23;;;;;;;;;;;;;;;46.57;13.92;100347.84;4977347;28;6896;-78
2022/08/25 11:06:06;;;;;;;;;;;;;;;46.55;13.79;100349.00;4972412;28;6812;-78
2022/08/25 11:08:46;;;;;;;;;;;;;;;46.48;13.79;100346.09;4947768;28;7320;-78
2022/08/25 11:11:31;;;;;;;;;;;;;;;46.35;13.70;100330.28;4956044;28;6985;-78
2022/08/25 11:14:11;;;;;;;;;;;;;;;46.12;13.76;100332.69;4960312;28;7006;-77
2022/08/25 11:17:15;;;;;;;;;;;;;;;46.02;13.78;100338.22;4962153;28;7446;-77
2022/08/25 11:19:50;;;;;;;;;;;;;;;45.91;13.85;100332.06;4961072;28;7185;-77
2022/08/25 11:22:59;;;;;;;;;;;;;;;45.71;13.75;100334.16;4962010;28;7210;-77
2022/08/25 11:25:44;;;;;;;;;;;;;;;45.85;14.04;100329.16;4978493;28;7163;-76
2022/08/25 11:28:46;;;;;;;;;;;;;;;46.15;13.62;100318.84;4956057;28;6861;-77
2022/08/25 11:31:15;;;;;;;;;;;;;;;46.31;13.50;100329.78;4960282;28;6829;-77
2022/08/25 11:33:42;;;;;;;;;;;;;;;46.51;13.32;100328.66;4974284;28;6812;-76
2022/08/25 11:36:34;;;;;;;;;;;;;;;46.72;13.31;100330.94;4965235;28;6870;-76
2022/08/25 11:39:28;;;;;;;;;;;;;;;47.08;13.18;100329.81;4963820;28;6796;-77
2022/08/25 11:42:42;;;;;;;;;;;;;;;47.52;12.68;100317.78;4959014;28;6788;-77
2022/08/25 11:45:48;;;;;;;;;;;;;;;47.91;12.97;100318.94;4962395;28;7843;-76
2022/08/25 11:48:54;;;;;;;;;;;;;;;48.19;12.47;100308.47;4963857;28;6877;-77
2022/08/25 11:51:46;;;;;;;;;;;;;;;48.27;12.26;100306.75;4963854;28;6824;-78
2022/08/25 11:54:47;;;;;;;;;;;;;;;48.39;12.14;100305.34;4980492;28;7300;-77
2022/08/25 11:57:15;;;;;;;;;;;;;;;48.55;11.89;100303.59;4963379;28;7040;-78
2022/08/25 11:59:54;;;;;;;;;;;;;;;48.68;11.64;100295.69;4965251;28;7257;-77
2022/08/25 12:02:46;;;;;;;;;;;;;;;48.68;11.48;100298.41;4966870;28;6800;-77
2022/08/25 12:05:18;;;;;;;;;;;;;;;48.54;11.45;100296.47;4957012;28;6792;-78
2022/08/25 12:11:06;;;;;;;;;;;;;;;48.45;11.95;100290.22;4964828;28;6789;-78
2022/08/25 12:13:49;;;;;;;;;;;;;;;48.47;11.80;100291.72;4980426;28;7755;-77
2022/08/25 12:16:34;;;;;;;;;;;;;;;48.50;11.80;100285.97;4957781;28;7248;-77
2022/08/25 12:19:27;;;;;;;;;;;;;;;48.48;11.46;100279.84;4962878;28;7106;-77
2022/08/25 12:22:14;;;;;;;;;;;;;;;48.35;11.55;100277.69;4983728;28;7114;-77
2022/08/25 12:24:42;;;;;;;;;;;;;;;48.13;11.43;100275.75;4964892;28;7229;-78
2022/08/25 12:27:41;;;;;;;;;;;;;;;47.79;11.17;100273.16;4965074;28;7408;-77
2022/08/25 12:30:24;;;;;;;;;;;;;;;47.59;11.39;100272.66;4960804;28;7324;-77
2022/08/25 12:33:27;;;;;;;;;;;;;;;47.79;11.72;100269.59;4975586;28;11481;-77
2022/08/25 12:36:00;;;;;;;;;;;;;;;48.13;11.38;100267.63;4965084;28;7019;-77
2022/08/25 12:38:28;;;;;;;;;;;;;;;48.29;11.16;100262.09;4977574;28;7022;-77
2022/08/25 12:41:17;;;;;;;;;;;;;;;48.44;10.88;100270.34;4963608;28;7208;-77
2022/08/25 12:43:48;;;;;;;;;;;;;;;48.48;10.99;100268.97;4979900;28;6983;-77
2022/08/25 12:46:19;;;;;;;;;;;;;;;48.55;11.17;100265.53;4970472;28;6960;-77
2022/08/25 12:49:16;;;;;;;;;;;;;;;48.62;11.03;100266.50;4966597;28;6788;-77
2022/08/25 12:51:42;;;;;;;;;;;;;;;48.37;10.98;100264.78;4983877;28;7433;-77
2022/08/25 12:54:21;;;;;;;;;;;;;;;48.11;11.04;100265.09;4960764;28;6768;-77
2022/08/25 12:57:03;;;;;;;;;;;;;;;47.85;10.96;100265.31;4960819;28;6816;-77
2022/08/25 12:59:40;;;;;;;;;;;;;;;47.79;11.32;100266.88;4993915;28;6878;-76
2022/08/25 13:02:46;;;;;;;;;;;;;;;47.95;11.15;100266.81;4949413;28;6978;-77
2022/08/25 13:06:13;;;;;;;;;;;;;;;48.16;11.09;100264.56;4962118;28;7286;-76
2022/08/25 13:08:56;;;;;;;;;;;;;;;48.17;11.06;100258.09;4967106;28;10280;-76
2022/08/25 13:11:50;;;;;;;;;;;;;;;48.28;11.44;100254.13;4974843;28;7253;-76
2022/08/25 13:14:33;;;;;;;;;;;;;;;48.41;11.41;100254.41;4958635;28;6872;-77
2022/08/25 13:16:59;;;;;;;;;;;;;;;48.48;11.06;100243.69;4963311;28;6973;-77
2022/08/25 13:19:28;;;;;;;;;;;;;;;48.49;11.30;100240.78;4960849;28;7749;-78
2022/08/25 13:21:57;;;;;;;;;;;;;;;48.50;11.34;100237.06;4960488;28;7117;-77
2022/08/25 13:24:32;;;;;;;;;;;;;;;48.55;11.63;100230.22;4993231;28;7230;-77
2022/08/25 13:27:07;;;;;;;;;;;;;;;48.29;11.41;100234.94;4960692;28;7043;-78
2022/08/25 13:29:49;;;;;;;;;;;;;;;47.52;11.74;100226.41;4964325;28;7275;-78